Flight Track Log - Related Links

Times and Time Zones

All times are in EDT time to prevent confusion due to time zone crossing. See the SWA657 flight status page for this flight to view local times or setup timezone preferences in your user account.

Time Position Orientation Groundspeed Altitude Reporting Facility
EDT Latitude Longitude Course Direction KTS MPH feet Rate Location/Type
Mon 08:37:18 PM 33.4333 -112.1000 269° West 217 250 3,500  Level Phoenix TRACON
Mon 08:38:18 PM 33.4333 -112.1667 270° West 242 278 5,800 2,750 Climbing Phoenix TRACON
Mon 08:39:18 PM 33.5000 -112.2000 337° Northwest 285 328 9,000 2,750 Climbing Phoenix TRACON
Mon 08:40:18 PM 33.5667 -112.1333 40° Northeast 306 352 11,300 2,323 Climbing Phoenix TRACON
Mon 08:41:22 PM 33.6497 -112.0697 33° Northeast 342 394 13,800 2,448 Climbing Albuquerque Center
Mon 08:42:23 PM 33.7311 -112.0003 35° Northeast 355 409 16,400 2,537 Climbing Albuquerque Center
Mon 08:43:25 PM 33.8228 -111.9239 35° Northeast 378 435 19,000 2,613 Climbing Albuquerque Center
Mon 08:44:27 PM 33.9183 -111.8419 35° Northeast 391 450 21,800 2,419 Climbing Albuquerque Center
Mon 08:45:29 PM 34.0283 -111.8339 North 408 470 24,000 2,129 Climbing Albuquerque Center
Mon 08:46:31 PM 34.1517 -111.8508 354° North 411 473 26,200 1,887 Climbing Albuquerque Center
Mon 08:47:33 PM 34.2550 -111.8628 355° North 426 490 27,900 1,355 Climbing Albuquerque Center
Mon 08:48:35 PM 34.3767 -111.8781 354° North 434 499 29,000 1,306 Climbing Albuquerque Center
Mon 08:49:37 PM 34.5214 -111.8967 354° North 434 499 30,600 1,694 Climbing Albuquerque Center
Mon 08:50:39 PM 34.6400 -111.9122 354° North 434 499 32,500 1,659 Climbing Albuquerque Center
Mon 08:51:40 PM 34.7597 -111.9267 354° North 433 498 34,000 732 Climbing Albuquerque Center
Mon 08:52:42 PM 34.8744 -111.9408 354° North 437 503 34,000  Level Albuquerque Center
Mon 08:53:44 PM 35.0228 -111.9586 354° North 445 512 34,000  Level Albuquerque Center
Mon 08:54:46 PM 35.1467 -111.9747 354° North 445 512 34,000  Level Albuquerque Center
Mon 08:55:48 PM 35.2694 -111.9889 355° North 446 513 34,000  Level Albuquerque Center
Mon 08:56:50 PM 35.3931 -112.0036 354° North 446 513 34,000  Level Albuquerque Center
Mon 08:57:52 PM 35.5156 -112.0206 354° North 446 513 34,000  Level Albuquerque Center
Mon 08:58:57 PM 35.6617 -112.0372 355° North 446 513 34,000 520 Level Los Angeles Center
Mon 08:59:59 PM 35.7864 -112.0539 354° North 447 514 35,100 968 Climbing Los Angeles Center
Mon 09:01:01 PM 35.9106 -112.0706 354° North 449 517 36,000 435 Climbing Los Angeles Center
Mon 09:02:03 PM 36.0331 -112.0839 355° North 448 516 36,000  Level Los Angeles Center
Mon 09:03:05 PM 36.1567 -112.1006 354° North 449 517 36,000  Level Los Angeles Center
Mon 09:04:07 PM 36.2975 -112.1175 354° North 447 514 36,000  Level Los Angeles Center
Mon 09:05:09 PM 36.4203 -112.1342 354° North 446 513 36,000  Level Los Angeles Center
Mon 09:06:11 PM 36.5428 -112.1492 354° North 446 513 36,000  Level Los Angeles Center
Mon 09:07:13 PM 36.6894 -112.1697 354° North 446 513 36,000  Level Los Angeles Center
Mon 09:08:15 PM 36.8111 -112.1844 354° North 443 510 36,000  Level Los Angeles Center
Mon 09:09:17 PM 36.9319 -112.2003 354° North 442 509 36,000  Level Los Angeles Center
Mon 09:10:19 PM 37.0544 -112.2169 354° North 442 509 36,000  Level Los Angeles Center
Mon 09:11:20 PM 37.1778 -112.2336 354° North 443 510 36,000 -293 Level Los Angeles Center
Mon 09:12:22 PM 37.2994 -112.2494 354° North 443 510 35,400 -968 Descending Los Angeles Center
Mon 09:13:24 PM 37.4444 -112.2700 354° North 442 509 34,000 -677 Descending Los Angeles Center
Mon 09:14:26 PM 37.5656 -112.2867 354° North 441 507 34,000  Level Los Angeles Center
Mon 09:15:28 PM 37.6861 -112.3011 355° North 441 507 34,000  Level Los Angeles Center
Mon 09:16:30 PM 37.8094 -112.2878 North 447 514 34,000  Level Los Angeles Center
Mon 09:17:32 PM 37.9339 -112.2708 North 448 516 34,000  Level Los Angeles Center
Mon 09:18:58 PM 38.1308 -112.2436 North 451 519 34,000  Level Salt Lake Center
Mon 09:19:59 PM 38.2528 -112.2267 North 447 514 34,000  Level Salt Lake Center
Mon 09:21:01 PM 38.3731 -112.2106 North 440 506 34,000  Level Salt Lake Center
Mon 09:22:03 PM 38.4942 -112.1922 North 439 505 34,000  Level Salt Lake Center
Mon 09:23:05 PM 38.6139 -112.1764 North 438 504 34,000 -293 Level Salt Lake Center
Mon 09:24:06 PM 38.7347 -112.1600 North 438 504 33,400 -732 Descending Salt Lake Center
Mon 09:25:08 PM 38.8569 -112.1433 North 441 507 32,500 -968 Descending Salt Lake Center
Mon 09:26:10 PM 39.0033 -112.1225 North 443 510 31,400 -1,073 Descending Salt Lake Center
Mon 09:27:11 PM 39.1256 -112.1061 North 442 509 30,300 -1,610 Descending Salt Lake Center
Mon 09:28:13 PM 39.2469 -112.0872 North 431 496 28,100 -2,274 Descending Salt Lake Center
Mon 09:29:15 PM 39.3622 -112.0711 North 421 484 25,600 -2,293 Descending Salt Lake Center
Mon 09:30:16 PM 39.4750 -112.0564 North 406 467 23,400 -2,146 Descending Salt Lake Center
Mon 09:31:18 PM 39.5836 -112.0397 North 394 453 21,200 -2,049 Descending Salt Lake Center
Mon 09:32:19 PM 39.6867 -112.0256 North 374 430 19,200 -1,854 Descending Salt Lake Center
Mon 09:33:21 PM 39.7856 -112.0117 North 360 414 17,400 -2,080 Descending Salt Lake Center
Mon 09:33:34 PM 39.8178 -112.0203 348° North 357 411 16,600 -1,935 Descending Salt Lake Center
Mon 09:34:23 PM 39.8825 -111.9986 14° North 353 406 15,400 -1,343 Descending Salt Lake Center
Mon 09:34:41 PM 39.9258 -112.0008 358° North 343 395 15,100 -1,082 Descending Salt Lake Center
Mon 09:35:24 PM 39.9828 -111.9514 34° Northeast 319 367 14,300 -1,279 Descending Salt Lake Center
Mon 09:35:42 PM 40.0058 -111.9489 North 316 364 13,800 -1,452 Descending Salt Lake Center
Mon 09:36:26 PM 40.0642 -111.9161 23° Northeast 304 350 12,800 -1,545 Descending Salt Lake Center
Mon 09:36:48 PM 40.0983 -111.9261 347° North 293 337 12,100 -1,770 Descending Salt Lake Center
Mon 09:37:27 PM 40.1461 -111.9231 North 296 341 11,000 -1,745 Descending Salt Lake Center
Mon 09:37:43 PM 40.1733 -111.9344 342° North 295 339 10,500 -968 Descending Salt Lake Center
Mon 09:38:29 PM 40.2283 -111.9331 North 297 342 10,000 -492 Descending Salt Lake Center
Mon 09:38:44 PM 40.2547 -111.9436 343° North 293 337 10,000 98 Level Salt Lake Center
Mon 09:39:30 PM 40.3075 -111.9428 North 289 333 10,100  Climbing Salt Lake Center
Mon 09:39:45 PM 40.3336 -111.9506 347° North 283 326 10,000 -381 Descending Salt Lake Center
Mon 09:40:33 PM 40.3853 -111.9503 360° North 278 320 9,700 -716 Descending Salt Lake Center
Mon 09:40:52 PM 40.4172 -111.9589 348° North 275 316 9,200 -689 Descending Salt Lake Center
Mon 09:41:34 PM 40.4572 -111.9597 359° North 255 293 9,000 -200 Descending Salt Lake Center
Mon 09:41:52 PM 40.4833 -111.9675 347° North 238 274 9,000  Level Salt Lake Center
Mon 09:42:35 PM 40.5222 -111.9664 North 241 277 9,000 -689 Level Salt Lake Center
Mon 09:42:53 PM 40.5558 -111.9739 350° North 234 269 8,300 -1,452 Descending Salt Lake Center
Mon 09:43:37 PM 40.6028 -111.9756 358° North 240 276 7,500 -1,082 Descending Salt Lake Center
Mon 09:43:54 PM 40.6194 -111.9806 347° North 238 274 7,200 -1,082 Descending Salt Lake Center
Mon 09:44:38 PM 40.6603 -111.9825 358° North 209 241 6,400 -984 Descending Salt Lake Center
Mon 09:44:55 PM 40.6747 -111.9875 345° North 192 221 6,200 -871 Descending Salt Lake Center
Mon 09:45:40 PM 40.7086 -111.9875 360° North 176 203 5,500 -885 Descending Salt Lake Center
Mon 09:45:56 PM 40.7208 -111.9917 346° North 152 175 5,300 -711 Descending Salt Lake Center
Mon 09:46:56 PM 40.7581 -111.9958 355° North 135 155 4,600 -617 Descending Salt Lake Center
Mon 09:47:43 PM 40.7869 -111.9967 359° North 144 166 4,200 -511 Descending Salt Lake Center
Mon 09:49:00 PM 40.7884 -111.9778 North  Level Estimated

Login

Don't have an account? Register now (free) for customized features, flight alerts, and more!